sensor_id;sensor_type;location;lat;lon;timestamp;P1;durP1;ratioP1;P2;durP2;ratioP2
21060;SDS011;10689;50.836;3.266;2022-12-18T00:01:14;54.03;;;25.00;;
21060;SDS011;10689;50.836;3.266;2022-12-18T00:03:46;48.60;;;24.87;;
21060;SDS011;10689;50.836;3.266;2022-12-18T00:06:12;47.73;;;22.67;;
21060;SDS011;10689;50.836;3.266;2022-12-18T00:08:41;53.30;;;23.67;;
21060;SDS011;10689;50.836;3.266;2022-12-18T00:11:08;52.13;;;25.30;;
21060;SDS011;10689;50.836;3.266;2022-12-18T00:13:36;55.87;;;25.83;;
21060;SDS011;10689;50.836;3.266;2022-12-18T00:16:14;47.47;;;23.83;;
21060;SDS011;10689;50.836;3.266;2022-12-18T00:18:42;48.70;;;24.23;;
21060;SDS011;10689;50.836;3.266;2022-12-18T00:21:10;44.90;;;23.97;;
21060;SDS011;10689;50.836;3.266;2022-12-18T00:23:37;47.43;;;24.03;;
21060;SDS011;10689;50.836;3.266;2022-12-18T00:26:06;48.00;;;24.50;;
21060;SDS011;10689;50.836;3.266;2022-12-18T00:28:37;51.13;;;25.63;;
21060;SDS011;10689;50.836;3.266;2022-12-18T00:31:07;57.90;;;25.03;;
21060;SDS011;10689;50.836;3.266;2022-12-18T00:33:36;45.23;;;23.77;;
21060;SDS011;10689;50.836;3.266;2022-12-18T00:36:07;46.07;;;25.57;;
21060;SDS011;10689;50.836;3.266;2022-12-18T00:38:34;48.47;;;23.83;;
21060;SDS011;10689;50.836;3.266;2022-12-18T00:41:00;50.70;;;24.43;;
21060;SDS011;10689;50.836;3.266;2022-12-18T00:43:26;47.43;;;22.57;;
21060;SDS011;10689;50.836;3.266;2022-12-18T00:45:53;51.17;;;23.60;;
21060;SDS011;10689;50.836;3.266;2022-12-18T00:48:19;42.73;;;22.67;;
21060;SDS011;10689;50.836;3.266;2022-12-18T00:50:47;45.70;;;22.80;;
21060;SDS011;10689;50.836;3.266;2022-12-18T00:53:14;45.93;;;23.37;;
21060;SDS011;10689;50.836;3.266;2022-12-18T00:55:40;40.50;;;21.57;;
21060;SDS011;10689;50.836;3.266;2022-12-18T00:58:07;39.70;;;22.50;;
21060;SDS011;10689;50.836;3.266;2022-12-18T01:00:33;41.10;;;23.23;;
21060;SDS011;10689;50.836;3.266;2022-12-18T01:03:02;43.50;;;22.20;;
21060;SDS011;10689;50.836;3.266;2022-12-18T01:05:31;40.13;;;21.73;;
21060;SDS011;10689;50.836;3.266;2022-12-18T01:07:56;38.73;;;21.53;;
21060;SDS011;10689;50.836;3.266;2022-12-18T01:10:22;51.77;;;23.07;;
21060;SDS011;10689;50.836;3.266;2022-12-18T01:12:49;42.03;;;22.13;;
21060;SDS011;10689;50.836;3.266;2022-12-18T01:15:15;40.10;;;21.70;;
21060;SDS011;10689;50.836;3.266;2022-12-18T01:17:43;42.03;;;23.67;;
21060;SDS011;10689;50.836;3.266;2022-12-18T01:20:11;40.10;;;22.67;;
21060;SDS011;10689;50.836;3.266;2022-12-18T01:22:38;39.90;;;22.53;;
21060;SDS011;10689;50.836;3.266;2022-12-18T01:25:04;38.33;;;22.03;;
21060;SDS011;10689;50.836;3.266;2022-12-18T01:27:31;43.13;;;20.73;;
21060;SDS011;10689;50.836;3.266;2022-12-18T01:29:58;37.47;;;22.27;;
21060;SDS011;10689;50.836;3.266;2022-12-18T01:32:24;37.00;;;21.00;;
21060;SDS011;10689;50.836;3.266;2022-12-18T01:34:50;39.80;;;19.90;;
21060;SDS011;10689;50.836;3.266;2022-12-18T01:37:16;37.23;;;20.60;;
21060;SDS011;10689;50.836;3.266;2022-12-18T01:39:42;35.40;;;19.77;;
21060;SDS011;10689;50.836;3.266;2022-12-18T01:42:11;36.23;;;19.60;;
21060;SDS011;10689;50.836;3.266;2022-12-18T01:47:48;38.03;;;21.23;;
21060;SDS011;10689;50.836;3.266;2022-12-18T01:50:36;34.93;;;19.83;;
21060;SDS011;10689;50.836;3.266;2022-12-18T01:55:47;36.50;;;20.57;;
21060;SDS011;10689;50.836;3.266;2022-12-18T01:58:18;34.57;;;20.87;;
21060;SDS011;10689;50.836;3.266;2022-12-18T02:00:49;34.00;;;20.20;;
21060;SDS011;10689;50.836;3.266;2022-12-18T02:03:15;43.63;;;21.70;;
21060;SDS011;10689;50.836;3.266;2022-12-18T02:19:27;38.83;;;22.00;;
21060;SDS011;10689;50.836;3.266;2022-12-18T02:22:29;38.93;;;22.00;;
21060;SDS011;10689;50.836;3.266;2022-12-18T02:25:27;38.30;;;21.80;;
21060;SDS011;10689;50.836;3.266;2022-12-18T02:27:58;37.47;;;21.20;;
21060;SDS011;10689;50.836;3.266;2022-12-18T02:30:27;40.17;;;22.07;;
21060;SDS011;10689;50.836;3.266;2022-12-18T02:32:56;42.00;;;22.10;;
21060;SDS011;10689;50.836;3.266;2022-12-18T02:35:25;39.73;;;22.67;;
21060;SDS011;10689;50.836;3.266;2022-12-18T02:37:54;44.83;;;22.67;;
21060;SDS011;10689;50.836;3.266;2022-12-18T02:40:21;37.30;;;20.53;;
21060;SDS011;10689;50.836;3.266;2022-12-18T02:42:49;40.70;;;22.83;;
21060;SDS011;10689;50.836;3.266;2022-12-18T02:45:14;40.03;;;21.57;;
21060;SDS011;10689;50.836;3.266;2022-12-18T02:47:42;35.73;;;19.87;;
21060;SDS011;10689;50.836;3.266;2022-12-18T02:50:24;34.93;;;20.70;;
21060;SDS011;10689;50.836;3.266;2022-12-18T03:01:34;38.73;;;23.03;;
21060;SDS011;10689;50.836;3.266;2022-12-18T03:04:10;36.70;;;20.13;;
21060;SDS011;10689;50.836;3.266;2022-12-18T03:06:52;37.30;;;21.33;;
21060;SDS011;10689;50.836;3.266;2022-12-18T03:09:27;35.70;;;20.80;;
21060;SDS011;10689;50.836;3.266;2022-12-18T03:12:01;39.53;;;21.23;;
21060;SDS011;10689;50.836;3.266;2022-12-18T03:15:03;33.80;;;20.73;;
21060;SDS011;10689;50.836;3.266;2022-12-18T03:17:35;30.97;;;17.80;;
21060;SDS011;10689;50.836;3.266;2022-12-18T03:20:07;36.67;;;21.40;;
21060;SDS011;10689;50.836;3.266;2022-12-18T03:22:41;32.90;;;19.00;;
21060;SDS011;10689;50.836;3.266;2022-12-18T03:25:09;32.63;;;18.83;;
21060;SDS011;10689;50.836;3.266;2022-12-18T03:27:38;37.63;;;19.50;;
21060;SDS011;10689;50.836;3.266;2022-12-18T03:30:10;34.17;;;19.20;;
21060;SDS011;10689;50.836;3.266;2022-12-18T03:32:39;32.50;;;18.33;;
21060;SDS011;10689;50.836;3.266;2022-12-18T03:35:23;32.13;;;17.57;;
21060;SDS011;10689;50.836;3.266;2022-12-18T03:37:53;33.13;;;18.83;;
21060;SDS011;10689;50.836;3.266;2022-12-18T03:40:20;36.13;;;18.07;;
21060;SDS011;10689;50.836;3.266;2022-12-18T03:43:07;28.93;;;17.80;;
21060;SDS011;10689;50.836;3.266;2022-12-18T03:45:42;30.00;;;17.43;;
21060;SDS011;10689;50.836;3.266;2022-12-18T03:48:17;34.73;;;19.03;;
21060;SDS011;10689;50.836;3.266;2022-12-18T03:51:06;27.67;;;16.07;;
21060;SDS011;10689;50.836;3.266;2022-12-18T03:56:21;22.80;;;14.17;;
21060;SDS011;10689;50.836;3.266;2022-12-18T03:58:50;24.43;;;15.73;;
21060;SDS011;10689;50.836;3.266;2022-12-18T04:01:18;26.93;;;14.73;;
21060;SDS011;10689;50.836;3.266;2022-12-18T04:03:46;23.77;;;14.93;;
21060;SDS011;10689;50.836;3.266;2022-12-18T04:06:15;23.60;;;14.23;;
21060;SDS011;10689;50.836;3.266;2022-12-18T04:08:42;18.90;;;12.53;;
21060;SDS011;10689;50.836;3.266;2022-12-18T04:11:09;28.63;;;14.07;;
21060;SDS011;10689;50.836;3.266;2022-12-18T04:13:36;23.63;;;13.20;;
21060;SDS011;10689;50.836;3.266;2022-12-18T04:16:03;19.50;;;13.07;;
21060;SDS011;10689;50.836;3.266;2022-12-18T04:18:29;26.73;;;14.50;;
21060;SDS011;10689;50.836;3.266;2022-12-18T04:20:58;19.57;;;12.57;;
21060;SDS011;10689;50.836;3.266;2022-12-18T04:23:24;21.13;;;12.80;;
21060;SDS011;10689;50.836;3.266;2022-12-18T04:25:50;20.87;;;13.33;;
21060;SDS011;10689;50.836;3.266;2022-12-18T04:28:16;23.83;;;14.50;;
21060;SDS011;10689;50.836;3.266;2022-12-18T04:30:43;28.07;;;13.87;;
21060;SDS011;10689;50.836;3.266;2022-12-18T04:33:12;21.30;;;13.17;;
21060;SDS011;10689;50.836;3.266;2022-12-18T04:35:41;20.30;;;12.70;;
21060;SDS011;10689;50.836;3.266;2022-12-18T04:38:08;22.13;;;13.10;;
21060;SDS011;10689;50.836;3.266;2022-12-18T04:40:37;21.23;;;13.30;;
21060;SDS011;10689;50.836;3.266;2022-12-18T04:43:03;21.90;;;14.13;;
21060;SDS011;10689;50.836;3.266;2022-12-18T04:45:30;21.10;;;13.30;;
21060;SDS011;10689;50.836;3.266;2022-12-18T04:47:59;23.60;;;13.57;;
21060;SDS011;10689;50.836;3.266;2022-12-18T04:50:25;24.97;;;13.70;;
21060;SDS011;10689;50.836;3.266;2022-12-18T04:52:51;25.07;;;15.07;;
21060;SDS011;10689;50.836;3.266;2022-12-18T04:55:18;21.10;;;13.20;;
21060;SDS011;10689;50.836;3.266;2022-12-18T04:57:44;23.30;;;13.47;;
21060;SDS011;10689;50.836;3.266;2022-12-18T05:00:10;23.53;;;13.40;;
21060;SDS011;10689;50.836;3.266;2022-12-18T05:02:37;26.83;;;14.10;;
21060;SDS011;10689;50.836;3.266;2022-12-18T05:05:03;21.67;;;12.97;;
21060;SDS011;10689;50.836;3.266;2022-12-18T05:07:29;25.63;;;14.77;;
21060;SDS011;10689;50.836;3.266;2022-12-18T05:09:54;25.17;;;14.00;;
21060;SDS011;10689;50.836;3.266;2022-12-18T05:12:20;19.77;;;13.17;;
21060;SDS011;10689;50.836;3.266;2022-12-18T05:14:46;19.80;;;13.07;;
21060;SDS011;10689;50.836;3.266;2022-12-18T05:17:12;22.97;;;13.60;;
21060;SDS011;10689;50.836;3.266;2022-12-18T05:19:38;23.20;;;12.43;;
21060;SDS011;10689;50.836;3.266;2022-12-18T05:22:04;20.97;;;12.73;;
21060;SDS011;10689;50.836;3.266;2022-12-18T05:24:30;21.80;;;11.93;;
21060;SDS011;10689;50.836;3.266;2022-12-18T05:26:56;21.87;;;12.50;;
21060;SDS011;10689;50.836;3.266;2022-12-18T05:29:21;19.03;;;11.57;;
21060;SDS011;10689;50.836;3.266;2022-12-18T05:31:50;18.73;;;12.43;;
21060;SDS011;10689;50.836;3.266;2022-12-18T05:34:16;21.60;;;12.57;;
21060;SDS011;10689;50.836;3.266;2022-12-18T05:36:42;20.83;;;12.50;;
21060;SDS011;10689;50.836;3.266;2022-12-18T05:39:09;22.63;;;13.10;;
21060;SDS011;10689;50.836;3.266;2022-12-18T05:41:35;19.47;;;12.13;;
21060;SDS011;10689;50.836;3.266;2022-12-18T05:44:01;20.13;;;12.90;;
21060;SDS011;10689;50.836;3.266;2022-12-18T05:46:27;22.07;;;13.77;;
21060;SDS011;10689;50.836;3.266;2022-12-18T05:48:53;24.50;;;12.80;;
21060;SDS011;10689;50.836;3.266;2022-12-18T05:51:20;21.23;;;13.73;;
21060;SDS011;10689;50.836;3.266;2022-12-18T05:53:47;20.30;;;12.80;;
21060;SDS011;10689;50.836;3.266;2022-12-18T05:56:17;20.57;;;12.90;;
21060;SDS011;10689;50.836;3.266;2022-12-18T05:58:45;20.47;;;12.30;;
21060;SDS011;10689;50.836;3.266;2022-12-18T06:01:13;24.60;;;11.67;;
21060;SDS011;10689;50.836;3.266;2022-12-18T06:03:43;18.13;;;11.70;;
21060;SDS011;10689;50.836;3.266;2022-12-18T06:06:27;17.73;;;11.27;;
21060;SDS011;10689;50.836;3.266;2022-12-18T06:08:58;14.43;;;9.50;;
21060;SDS011;10689;50.836;3.266;2022-12-18T06:11:26;16.70;;;10.20;;
21060;SDS011;10689;50.836;3.266;2022-12-18T06:13:53;15.63;;;10.43;;
21060;SDS011;10689;50.836;3.266;2022-12-18T06:16:20;17.07;;;10.47;;
21060;SDS011;10689;50.836;3.266;2022-12-18T06:18:46;14.23;;;9.90;;
21060;SDS011;10689;50.836;3.266;2022-12-18T06:21:12;13.63;;;8.67;;
21060;SDS011;10689;50.836;3.266;2022-12-18T06:23:38;16.03;;;9.80;;
21060;SDS011;10689;50.836;3.266;2022-12-18T06:26:05;15.48;;;10.38;;
21060;SDS011;10689;50.836;3.266;2022-12-18T06:28:34;16.50;;;9.90;;
21060;SDS011;10689;50.836;3.266;2022-12-18T06:31:02;13.37;;;8.57;;
21060;SDS011;10689;50.836;3.266;2022-12-18T06:33:29;15.85;;;10.38;;
21060;SDS011;10689;50.836;3.266;2022-12-18T06:35:59;18.83;;;10.20;;
21060;SDS011;10689;50.836;3.266;2022-12-18T06:38:36;13.03;;;8.90;;
21060;SDS011;10689;50.836;3.266;2022-12-18T06:41:10;15.38;;;9.75;;
21060;SDS011;10689;50.836;3.266;2022-12-18T06:43:40;13.90;;;9.33;;
21060;SDS011;10689;50.836;3.266;2022-12-18T06:46:10;12.73;;;8.43;;
21060;SDS011;10689;50.836;3.266;2022-12-18T06:48:40;13.73;;;9.40;;
21060;SDS011;10689;50.836;3.266;2022-12-18T06:51:06;11.83;;;8.07;;
21060;SDS011;10689;50.836;3.266;2022-12-18T06:53:33;15.57;;;7.30;;
21060;SDS011;10689;50.836;3.266;2022-12-18T06:55:59;14.40;;;8.03;;
21060;SDS011;10689;50.836;3.266;2022-12-18T06:58:30;14.47;;;8.53;;
21060;SDS011;10689;50.836;3.266;2022-12-18T07:01:00;11.80;;;8.13;;
21060;SDS011;10689;50.836;3.266;2022-12-18T07:03:29;13.67;;;8.53;;
21060;SDS011;10689;50.836;3.266;2022-12-18T07:05:55;15.60;;;8.00;;
21060;SDS011;10689;50.836;3.266;2022-12-18T07:08:21;10.00;;;7.50;;
21060;SDS011;10689;50.836;3.266;2022-12-18T07:10:46;12.97;;;7.43;;
21060;SDS011;10689;50.836;3.266;2022-12-18T07:13:14;12.33;;;8.33;;
21060;SDS011;10689;50.836;3.266;2022-12-18T07:15:41;13.52;;;10.02;;
21060;SDS011;10689;50.836;3.266;2022-12-18T07:18:09;11.83;;;7.60;;
21060;SDS011;10689;50.836;3.266;2022-12-18T07:20:37;13.17;;;7.20;;
21060;SDS011;10689;50.836;3.266;2022-12-18T07:23:11;13.30;;;8.03;;
21060;SDS011;10689;50.836;3.266;2022-12-18T07:25:37;12.23;;;8.70;;
21060;SDS011;10689;50.836;3.266;2022-12-18T07:28:05;12.17;;;8.20;;
21060;SDS011;10689;50.836;3.266;2022-12-18T07:30:31;10.63;;;7.60;;
21060;SDS011;10689;50.836;3.266;2022-12-18T07:32:57;12.00;;;8.57;;
21060;SDS011;10689;50.836;3.266;2022-12-18T07:35:23;12.57;;;7.90;;
21060;SDS011;10689;50.836;3.266;2022-12-18T07:37:49;13.43;;;8.13;;
21060;SDS011;10689;50.836;3.266;2022-12-18T07:40:15;11.63;;;7.87;;
21060;SDS011;10689;50.836;3.266;2022-12-18T07:42:41;10.83;;;8.10;;
21060;SDS011;10689;50.836;3.266;2022-12-18T07:45:07;12.17;;;8.30;;
21060;SDS011;10689;50.836;3.266;2022-12-18T07:47:36;15.37;;;8.70;;
21060;SDS011;10689;50.836;3.266;2022-12-18T07:50:03;11.97;;;8.33;;
21060;SDS011;10689;50.836;3.266;2022-12-18T07:52:29;11.53;;;7.50;;
21060;SDS011;10689;50.836;3.266;2022-12-18T07:54:58;13.80;;;8.17;;
21060;SDS011;10689;50.836;3.266;2022-12-18T07:57:24;12.07;;;8.07;;
21060;SDS011;10689;50.836;3.266;2022-12-18T07:59:50;11.40;;;7.53;;
21060;SDS011;10689;50.836;3.266;2022-12-18T08:02:16;13.70;;;8.60;;
21060;SDS011;10689;50.836;3.266;2022-12-18T08:04:42;11.80;;;7.70;;
21060;SDS011;10689;50.836;3.266;2022-12-18T08:07:07;12.53;;;7.53;;
21060;SDS011;10689;50.836;3.266;2022-12-18T08:09:34;16.60;;;8.90;;
21060;SDS011;10689;50.836;3.266;2022-12-18T08:11:59;13.07;;;8.57;;
21060;SDS011;10689;50.836;3.266;2022-12-18T08:14:26;16.13;;;7.93;;
21060;SDS011;10689;50.836;3.266;2022-12-18T08:16:52;14.50;;;8.33;;
21060;SDS011;10689;50.836;3.266;2022-12-18T08:19:18;12.10;;;8.00;;
21060;SDS011;10689;50.836;3.266;2022-12-18T08:21:44;14.50;;;8.53;;
21060;SDS011;10689;50.836;3.266;2022-12-18T08:24:10;14.57;;;8.93;;
21060;SDS011;10689;50.836;3.266;2022-12-18T08:26:37;13.40;;;8.70;;
21060;SDS011;10689;50.836;3.266;2022-12-18T08:29:03;13.80;;;9.57;;
21060;SDS011;10689;50.836;3.266;2022-12-18T08:31:31;24.40;;;14.03;;
21060;SDS011;10689;50.836;3.266;2022-12-18T08:33:57;21.47;;;12.00;;
21060;SDS011;10689;50.836;3.266;2022-12-18T08:36:26;15.83;;;10.83;;
21060;SDS011;10689;50.836;3.266;2022-12-18T08:38:54;16.07;;;10.37;;
21060;SDS011;10689;50.836;3.266;2022-12-18T08:41:21;22.50;;;11.00;;
21060;SDS011;10689;50.836;3.266;2022-12-18T08:43:46;16.87;;;9.67;;
21060;SDS011;10689;50.836;3.266;2022-12-18T08:46:32;15.10;;;8.67;;
21060;SDS011;10689;50.836;3.266;2022-12-18T08:49:01;15.10;;;9.60;;
21060;SDS011;10689;50.836;3.266;2022-12-18T08:51:30;15.23;;;8.37;;
21060;SDS011;10689;50.836;3.266;2022-12-18T08:53:56;18.73;;;9.13;;
21060;SDS011;10689;50.836;3.266;2022-12-18T08:56:22;13.60;;;9.77;;
21060;SDS011;10689;50.836;3.266;2022-12-18T08:58:51;12.90;;;9.73;;
21060;SDS011;10689;50.836;3.266;2022-12-18T09:01:20;15.70;;;9.67;;
21060;SDS011;10689;50.836;3.266;2022-12-18T09:03:48;16.20;;;10.63;;
21060;SDS011;10689;50.836;3.266;2022-12-18T09:06:15;17.00;;;10.17;;
21060;SDS011;10689;50.836;3.266;2022-12-18T09:08:43;13.80;;;8.70;;
21060;SDS011;10689;50.836;3.266;2022-12-18T09:11:13;12.57;;;8.57;;
21060;SDS011;10689;50.836;3.266;2022-12-18T09:13:43;14.67;;;9.57;;
21060;SDS011;10689;50.836;3.266;2022-12-18T09:16:09;13.83;;;9.03;;
21060;SDS011;10689;50.836;3.266;2022-12-18T09:18:37;14.37;;;8.87;;
21060;SDS011;10689;50.836;3.266;2022-12-18T09:21:07;14.23;;;9.00;;
21060;SDS011;10689;50.836;3.266;2022-12-18T09:23:34;17.83;;;10.53;;
21060;SDS011;10689;50.836;3.266;2022-12-18T09:26:00;15.90;;;9.60;;
21060;SDS011;10689;50.836;3.266;2022-12-18T09:28:28;12.23;;;8.93;;
21060;SDS011;10689;50.836;3.266;2022-12-18T09:30:54;15.67;;;8.93;;
21060;SDS011;10689;50.836;3.266;2022-12-18T09:33:20;15.03;;;9.07;;
21060;SDS011;10689;50.836;3.266;2022-12-18T09:35:46;16.67;;;10.33;;
21060;SDS011;10689;50.836;3.266;2022-12-18T09:38:13;15.03;;;10.03;;
21060;SDS011;10689;50.836;3.266;2022-12-18T09:40:46;17.77;;;10.67;;
21060;SDS011;10689;50.836;3.266;2022-12-18T09:43:19;12.27;;;9.10;;
21060;SDS011;10689;50.836;3.266;2022-12-18T09:46:01;20.50;;;10.83;;
21060;SDS011;10689;50.836;3.266;2022-12-18T09:48:32;14.27;;;9.10;;
21060;SDS011;10689;50.836;3.266;2022-12-18T09:51:12;17.00;;;9.37;;
21060;SDS011;10689;50.836;3.266;2022-12-18T09:53:45;11.63;;;8.57;;
21060;SDS011;10689;50.836;3.266;2022-12-18T09:56:17;13.53;;;9.20;;
21060;SDS011;10689;50.836;3.266;2022-12-18T09:58:49;17.27;;;9.43;;
21060;SDS011;10689;50.836;3.266;2022-12-18T10:01:22;15.23;;;9.87;;
21060;SDS011;10689;50.836;3.266;2022-12-18T10:03:50;15.50;;;10.40;;
21060;SDS011;10689;50.836;3.266;2022-12-18T10:06:19;19.80;;;10.73;;
21060;SDS011;10689;50.836;3.266;2022-12-18T10:09:14;15.40;;;9.07;;
21060;SDS011;10689;50.836;3.266;2022-12-18T10:19:53;15.73;;;10.47;;
21060;SDS011;10689;50.836;3.266;2022-12-18T10:27:39;17.97;;;11.90;;
21060;SDS011;10689;50.836;3.266;2022-12-18T10:30:12;18.83;;;12.27;;
21060;SDS011;10689;50.836;3.266;2022-12-18T10:32:42;20.13;;;12.37;;
21060;SDS011;10689;50.836;3.266;2022-12-18T10:35:12;22.47;;;12.23;;
21060;SDS011;10689;50.836;3.266;2022-12-18T10:38:07;16.70;;;11.83;;
21060;SDS011;10689;50.836;3.266;2022-12-18T10:43:35;19.77;;;13.23;;
21060;SDS011;10689;50.836;3.266;2022-12-18T10:46:12;18.47;;;12.53;;
21060;SDS011;10689;50.836;3.266;2022-12-18T10:48:53;22.00;;;12.27;;
21060;SDS011;10689;50.836;3.266;2022-12-18T10:51:27;19.77;;;12.47;;
21060;SDS011;10689;50.836;3.266;2022-12-18T10:53:56;21.13;;;12.40;;
21060;SDS011;10689;50.836;3.266;2022-12-18T10:56:25;20.00;;;12.80;;
21060;SDS011;10689;50.836;3.266;2022-12-18T10:59:03;19.20;;;12.60;;
21060;SDS011;10689;50.836;3.266;2022-12-18T11:01:44;19.47;;;13.50;;
21060;SDS011;10689;50.836;3.266;2022-12-18T11:04:27;21.60;;;13.07;;
21060;SDS011;10689;50.836;3.266;2022-12-18T11:11:51;20.13;;;13.27;;
21060;SDS011;10689;50.836;3.266;2022-12-18T11:14:23;23.23;;;13.70;;
21060;SDS011;10689;50.836;3.266;2022-12-18T11:16:51;18.97;;;12.97;;
21060;SDS011;10689;50.836;3.266;2022-12-18T11:21:53;22.10;;;14.07;;
21060;SDS011;10689;50.836;3.266;2022-12-18T11:24:27;19.97;;;13.93;;
21060;SDS011;10689;50.836;3.266;2022-12-18T11:27:01;20.30;;;13.47;;
21060;SDS011;10689;50.836;3.266;2022-12-18T11:29:37;22.03;;;14.90;;
21060;SDS011;10689;50.836;3.266;2022-12-18T11:34:40;25.53;;;16.27;;
21060;SDS011;10689;50.836;3.266;2022-12-18T11:37:10;21.93;;;14.47;;
21060;SDS011;10689;50.836;3.266;2022-12-18T11:47:38;23.97;;;15.80;;
21060;SDS011;10689;50.836;3.266;2022-12-18T11:50:19;23.53;;;15.87;;
21060;SDS011;10689;50.836;3.266;2022-12-18T11:52:49;25.00;;;16.03;;
21060;SDS011;10689;50.836;3.266;2022-12-18T11:55:18;26.20;;;14.03;;
21060;SDS011;10689;50.836;3.266;2022-12-18T11:57:57;25.47;;;16.13;;
21060;SDS011;10689;50.836;3.266;2022-12-18T12:00:34;22.93;;;13.60;;
21060;SDS011;10689;50.836;3.266;2022-12-18T12:11:13;25.80;;;15.83;;
21060;SDS011;10689;50.836;3.266;2022-12-18T12:14:12;24.23;;;15.43;;
21060;SDS011;10689;50.836;3.266;2022-12-18T12:16:57;24.47;;;14.50;;
21060;SDS011;10689;50.836;3.266;2022-12-18T12:19:52;22.97;;;14.57;;
21060;SDS011;10689;50.836;3.266;2022-12-18T12:28:07;25.10;;;15.67;;
21060;SDS011;10689;50.836;3.266;2022-12-18T12:31:01;24.57;;;14.93;;
21060;SDS011;10689;50.836;3.266;2022-12-18T12:38:35;23.97;;;14.93;;
21060;SDS011;10689;50.836;3.266;2022-12-18T12:41:09;24.47;;;15.27;;
21060;SDS011;10689;50.836;3.266;2022-12-18T12:43:57;24.93;;;14.67;;
21060;SDS011;10689;50.836;3.266;2022-12-18T12:46:26;26.17;;;14.80;;
21060;SDS011;10689;50.836;3.266;2022-12-18T12:48:56;23.20;;;14.33;;
21060;SDS011;10689;50.836;3.266;2022-12-18T12:51:34;22.53;;;14.70;;
21060;SDS011;10689;50.836;3.266;2022-12-18T12:54:02;23.87;;;14.00;;
21060;SDS011;10689;50.836;3.266;2022-12-18T12:56:48;35.00;;;15.17;;
21060;SDS011;10689;50.836;3.266;2022-12-18T12:59:46;26.63;;;16.20;;
21060;SDS011;10689;50.836;3.266;2022-12-18T13:02:30;27.13;;;14.60;;
21060;SDS011;10689;50.836;3.266;2022-12-18T13:07:51;24.97;;;15.33;;
21060;SDS011;10689;50.836;3.266;2022-12-18T13:10:31;23.97;;;15.13;;
21060;SDS011;10689;50.836;3.266;2022-12-18T13:13:08;29.50;;;15.77;;
21060;SDS011;10689;50.836;3.266;2022-12-18T13:15:45;25.07;;;16.67;;
21060;SDS011;10689;50.836;3.266;2022-12-18T13:18:21;28.40;;;16.60;;
21060;SDS011;10689;50.836;3.266;2022-12-18T13:20:50;27.47;;;15.43;;
21060;SDS011;10689;50.836;3.266;2022-12-18T13:25:55;21.33;;;13.50;;
21060;SDS011;10689;50.836;3.266;2022-12-18T13:28:49;27.20;;;15.13;;
21060;SDS011;10689;50.836;3.266;2022-12-18T13:31:13;26.90;;;13.77;;
21060;SDS011;10689;50.836;3.266;2022-12-18T13:36:41;23.57;;;14.43;;
21060;SDS011;10689;50.836;3.266;2022-12-18T13:41:40;24.97;;;14.60;;
21060;SDS011;10689;50.836;3.266;2022-12-18T13:46:46;27.33;;;14.20;;
21060;SDS011;10689;50.836;3.266;2022-12-18T13:51:39;25.07;;;15.27;;
21060;SDS011;10689;50.836;3.266;2022-12-18T13:57:00;27.00;;;16.73;;
21060;SDS011;10689;50.836;3.266;2022-12-18T13:59:34;25.17;;;16.07;;
21060;SDS011;10689;50.836;3.266;2022-12-18T14:02:13;26.43;;;15.47;;
21060;SDS011;10689;50.836;3.266;2022-12-18T14:04:44;32.37;;;15.17;;
21060;SDS011;10689;50.836;3.266;2022-12-18T14:07:12;25.60;;;16.50;;
21060;SDS011;10689;50.836;3.266;2022-12-18T14:09:47;25.00;;;15.63;;
21060;SDS011;10689;50.836;3.266;2022-12-18T14:12:17;25.60;;;16.10;;
21060;SDS011;10689;50.836;3.266;2022-12-18T14:20:24;26.80;;;15.70;;
21060;SDS011;10689;50.836;3.266;2022-12-18T14:22:52;24.13;;;15.13;;
21060;SDS011;10689;50.836;3.266;2022-12-18T14:25:23;27.03;;;15.40;;
21060;SDS011;10689;50.836;3.266;2022-12-18T14:30:35;27.43;;;15.13;;
21060;SDS011;10689;50.836;3.266;2022-12-18T14:33:12;24.20;;;14.27;;
21060;SDS011;10689;50.836;3.266;2022-12-18T14:35:40;22.87;;;14.87;;
21060;SDS011;10689;50.836;3.266;2022-12-18T14:38:38;25.10;;;15.40;;
21060;SDS011;10689;50.836;3.266;2022-12-18T14:41:15;27.40;;;15.77;;
21060;SDS011;10689;50.836;3.266;2022-12-18T14:43:43;27.97;;;15.17;;
21060;SDS011;10689;50.836;3.266;2022-12-18T14:48:50;26.37;;;14.90;;
21060;SDS011;10689;50.836;3.266;2022-12-18T14:51:17;26.07;;;14.80;;
21060;SDS011;10689;50.836;3.266;2022-12-18T14:56:27;26.17;;;14.80;;
21060;SDS011;10689;50.836;3.266;2022-12-18T14:58:58;29.60;;;16.63;;
21060;SDS011;10689;50.836;3.266;2022-12-18T15:04:00;27.17;;;15.10;;
21060;SDS011;10689;50.836;3.266;2022-12-18T15:09:01;28.37;;;15.77;;
21060;SDS011;10689;50.836;3.266;2022-12-18T15:11:43;28.07;;;15.40;;
21060;SDS011;10689;50.836;3.266;2022-12-18T15:14:21;31.00;;;16.13;;
21060;SDS011;10689;50.836;3.266;2022-12-18T15:16:59;25.27;;;14.60;;
21060;SDS011;10689;50.836;3.266;2022-12-18T15:19:34;24.93;;;14.53;;
21060;SDS011;10689;50.836;3.266;2022-12-18T15:22:03;27.33;;;16.07;;
21060;SDS011;10689;50.836;3.266;2022-12-18T15:24:31;24.13;;;14.13;;
21060;SDS011;10689;50.836;3.266;2022-12-18T15:26:58;24.40;;;13.60;;
21060;SDS011;10689;50.836;3.266;2022-12-18T15:29:24;23.70;;;15.10;;
21060;SDS011;10689;50.836;3.266;2022-12-18T15:32:04;26.27;;;16.30;;
21060;SDS011;10689;50.836;3.266;2022-12-18T15:34:37;27.47;;;15.40;;
21060;SDS011;10689;50.836;3.266;2022-12-18T15:37:03;26.50;;;14.80;;
21060;SDS011;10689;50.836;3.266;2022-12-18T15:39:29;28.13;;;15.10;;
21060;SDS011;10689;50.836;3.266;2022-12-18T15:41:55;27.33;;;15.57;;
21060;SDS011;10689;50.836;3.266;2022-12-18T15:44:40;29.03;;;15.30;;
21060;SDS011;10689;50.836;3.266;2022-12-18T15:47:12;28.93;;;15.10;;
21060;SDS011;10689;50.836;3.266;2022-12-18T15:49:38;23.63;;;13.77;;
21060;SDS011;10689;50.836;3.266;2022-12-18T15:52:04;29.00;;;15.23;;
21060;SDS011;10689;50.836;3.266;2022-12-18T15:54:30;22.70;;;13.57;;
21060;SDS011;10689;50.836;3.266;2022-12-18T15:57:15;22.43;;;14.77;;
21060;SDS011;10689;50.836;3.266;2022-12-18T15:59:54;26.07;;;14.27;;
21060;SDS011;10689;50.836;3.266;2022-12-18T16:02:25;26.27;;;13.80;;
21060;SDS011;10689;50.836;3.266;2022-12-18T16:04:53;23.70;;;14.23;;
21060;SDS011;10689;50.836;3.266;2022-12-18T16:07:19;25.40;;;14.47;;
21060;SDS011;10689;50.836;3.266;2022-12-18T16:09:45;27.70;;;14.80;;
21060;SDS011;10689;50.836;3.266;2022-12-18T16:12:14;25.53;;;15.83;;
21060;SDS011;10689;50.836;3.266;2022-12-18T16:14:45;26.87;;;14.13;;
21060;SDS011;10689;50.836;3.266;2022-12-18T16:17:12;28.93;;;15.67;;
21060;SDS011;10689;50.836;3.266;2022-12-18T16:19:48;24.60;;;15.13;;
21060;SDS011;10689;50.836;3.266;2022-12-18T16:22:39;27.63;;;15.70;;
21060;SDS011;10689;50.836;3.266;2022-12-18T16:25:15;25.43;;;14.27;;
21060;SDS011;10689;50.836;3.266;2022-12-18T16:27:45;25.30;;;14.20;;
21060;SDS011;10689;50.836;3.266;2022-12-18T16:30:14;24.70;;;14.23;;
21060;SDS011;10689;50.836;3.266;2022-12-18T16:32:47;21.10;;;12.73;;
21060;SDS011;10689;50.836;3.266;2022-12-18T16:35:17;24.23;;;15.07;;
21060;SDS011;10689;50.836;3.266;2022-12-18T16:37:43;21.90;;;13.60;;
21060;SDS011;10689;50.836;3.266;2022-12-18T16:40:11;27.47;;;14.37;;
21060;SDS011;10689;50.836;3.266;2022-12-18T16:42:41;25.37;;;14.07;;
21060;SDS011;10689;50.836;3.266;2022-12-18T16:45:09;26.83;;;13.60;;